Altha, Florida
Current Conditions -  °F | °C
As of 7:02 PM on Sunday 23 Nov 2014 (Local Time) from KMAI Reporting Station
Light Rain Light Rain  
Wind Chill: 65°   Ceiling: 700
Heat Index: 65°   Visibility: 10mi
Dew Point: 65°   Wind: 7mph
Humidity: 100%   Direction: 190°S
Pressure: 29.8"   Gusts: NA
Location:  30.57°N, 85.13°W
Report Text: KMAI 240102Z AUTO 19006KT 10SM -RA BKN007 OVC013 18/18 A2980 RMK AO2 RAB0059 CIG 005V010 P0000 T01830183 $
Loading
Personal Weather Stations






























Interactive Weather Map New forecast layout! Learn more

10-Day Weather Forecast

Advertisements
Track Severe Weather on mobile